Decoded Metar for KRID ( in ) (IATA:) | Meteo·Mobile Aviation Weather
aviador You're here:

KRID Decoded Metar

in
Report Time2018-08-21 10:15:00
UTC Time2018-08-21 10:37:11
Flight Rules mvfr MVFR
Wind240° at 09 kt
W.Decomp.*RWY 24: 9.0 kt HW 0 kt LCW
RWY 15: 9.0 kt RCW
W.Rank240° ranks 3
Current wind is below 240° avg. (9.7)
Visibility9999 m
Phenomena:N/A
Clouds:Scattered 016 Hf
Broken 029 Hf
Overcast 080 Hf
Ceiling2,900 ft
Temp20°C
Dew Point20°C (100% RH)
QNH1009 hPa
Raw Report
KRID 211015Z AUTO 24009KT 10SM SCT016 BKN029 OVC080 20/20 A2981
RMK AO2 P0002=

Extra information for KRID:More info

Social comments